Time;durP1;ratioP1;P1;durP2;ratioP2;P2;SDS_P1;SDS_P2;PMS_P1;PMS_P2;Temp;Humidity;BMP_temperature;BMP_pressure;BME280_temperature;BME280_humidity;BME280_pressure;Samples;Min_cycle;Max_cycle;Signal;HPM_P1;HPM_P2
2021/03/23 07:31:37;;;;;;;13.52;6.85;;;6.60;70.20;;;;;;4959983;27;5147345;-59
2021/03/23 07:34:30;;;;;;;11.02;7.13;;;6.70;70.60;;;;;;5142412;27;27394;-60
2021/03/23 07:37:20;;;;;;;12.35;7.10;;;6.80;70.30;;;;;;5127889;27;27407;-57
2021/03/23 07:40:26;;;;;;;11.30;6.80;;;7.00;70.20;;;;;;5127648;27;27423;-60
2021/03/23 07:43:17;;;;;;;12.73;7.57;;;7.10;69.70;;;;;;5142599;27;27468;-57
2021/03/23 07:46:26;;;;;;;11.05;7.45;;;7.30;69.30;;;;;;5142545;27;27367;-58
2021/03/23 07:49:21;;;;;;;12.15;6.72;;;7.50;69.10;;;;;;5138929;27;26894;-58
2021/03/23 07:52:16;;;;;;;12.32;7.20;;;7.60;68.80;;;;;;5142486;27;26937;-59
2021/03/23 07:55:02;;;;;;;13.38;7.38;;;7.70;68.40;;;;;;5142133;27;27903;-57
2021/03/23 07:58:08;;;;;;;12.07;6.68;;;7.90;68.00;;;;;;5126852;27;27431;-58
2021/03/23 08:01:17;;;;;;;10.52;7.70;;;8.10;67.60;;;;;;5141576;27;26912;-58
2021/03/23 08:04:16;;;;;;;11.68;7.38;;;8.20;67.10;;;;;;5123199;27;27336;-58
2021/03/23 08:07:18;;;;;;;11.50;7.00;;;8.40;66.80;;;;;;5124290;27;27959;-58
2021/03/23 08:10:16;;;;;;;11.90;6.93;;;8.60;66.30;;;;;;5127354;27;27427;-58
2021/03/23 08:13:14;;;;;;;16.40;7.78;;;8.70;66.00;;;;;;5142151;27;27424;-58
2021/03/23 08:16:12;;;;;;;14.70;6.90;;;8.80;65.60;;;;;;5141861;27;27399;-58
2021/03/23 08:19:21;;;;;;;13.65;8.13;;;9.00;65.30;;;;;;5141974;27;27333;-58
2021/03/23 08:22:36;;;;;;;14.20;7.63;;;9.20;65.00;;;;;;5128834;27;27489;-58
2021/03/23 08:25:28;;;;;;;12.25;8.00;;;9.40;64.70;;;;;;5141736;27;27493;-57
2021/03/23 08:28:33;;;;;;;13.65;8.15;;;9.60;64.20;;;;;;5139653;27;27379;-60
2021/03/23 08:31:45;;;;;;;10.45;6.75;;;9.80;63.80;;;;;;5125236;27;27857;-61
2021/03/23 08:35:01;;;;;;;12.50;8.52;;;10.00;63.40;;;;;;5126555;27;27546;-60
2021/03/23 08:37:54;;;;;;;13.90;7.35;;;10.20;63.00;;;;;;5141513;27;27341;-60
2021/03/23 08:41:11;;;;;;;14.48;7.18;;;10.40;62.30;;;;;;5126304;27;27341;-60
2021/03/23 08:43:56;;;;;;;12.90;7.75;;;10.60;62.00;;;;;;5096723;27;27424;-60
2021/03/23 08:46:40;;;;;;;14.25;8.05;;;10.80;61.50;;;;;;5108861;27;27378;-60
2021/03/23 08:49:25;;;;;;;16.10;8.85;;;11.00;61.00;;;;;;5112249;27;27387;-60
2021/03/23 08:52:38;;;;;;;13.15;8.55;;;11.20;60.50;;;;;;5094695;27;27396;-59
2021/03/23 08:55:33;;;;;;;13.10;8.45;;;11.40;60.30;;;;;;5125588;27;27434;-60
2021/03/23 08:58:19;;;;;;;14.15;8.05;;;11.60;59.90;;;;;;5127285;27;27474;-60
2021/03/23 09:01:04;;;;;;;15.38;10.25;;;11.80;59.50;;;;;;5112183;27;27324;-60
2021/03/23 09:03:49;;;;;;;13.15;8.55;;;12.00;59.30;;;;;;5127314;27;27379;-60
2021/03/23 09:06:56;;;;;;;15.32;8.93;;;12.20;58.80;;;;;;5112330;27;27319;-58
2021/03/23 09:09:45;;;;;;;17.27;9.38;;;12.50;58.40;;;;;;5112102;27;27349;-60
2021/03/23 09:12:41;;;;;;;16.00;9.75;;;12.80;58.10;;;;;;5127440;27;27412;-60
2021/03/23 09:15:26;;;;;;;14.90;8.75;;;13.00;57.50;;;;;;5109161;27;27405;-60
2021/03/23 09:18:14;;;;;;;13.65;9.27;;;13.40;57.10;;;;;;5127066;27;27462;-60
2021/03/23 09:21:03;;;;;;;15.77;9.90;;;13.60;56.40;;;;;;5108594;27;27390;-60
2021/03/23 09:23:50;;;;;;;16.58;10.07;;;13.90;56.10;;;;;;5127015;27;27378;-58
2021/03/23 09:26:43;;;;;;;16.08;10.65;;;14.20;55.60;;;;;;5126905;27;27408;-58
2021/03/23 09:29:31;;;;;;;17.85;11.07;;;14.40;55.00;;;;;;5126818;27;27595;-59
2021/03/23 09:32:20;;;;;;;20.08;10.73;;;14.60;54.40;;;;;;5126770;27;27410;-59
2021/03/23 09:35:13;;;;;;;18.83;11.10;;;14.70;54.40;;;;;;5126811;27;27381;-58
2021/03/23 09:38:34;;;;;;;16.27;10.18;;;14.70;54.30;;;;;;5111994;27;27407;-58
2021/03/23 09:41:26;;;;;;;16.20;10.60;;;14.70;54.50;;;;;;5126879;27;27488;-58
2021/03/23 09:44:16;;;;;;;15.57;9.88;;;14.60;54.90;;;;;;5126897;27;27386;-59
2021/03/23 09:47:01;;;;;;;16.83;11.00;;;14.40;55.10;;;;;;5126937;27;27403;-60
2021/03/23 09:49:46;;;;;;;14.40;9.98;;;14.30;55.50;;;;;;5110894;27;27004;-60
2021/03/23 09:52:32;;;;;;;19.38;11.45;;;14.10;56.00;;;;;;5110980;27;27951;-60
2021/03/23 09:55:17;;;;;;;18.42;11.05;;;13.90;56.40;;;;;;5111171;27;27455;-60
2021/03/23 09:58:02;;;;;;;15.80;11.02;;;13.80;56.60;;;;;;5096847;27;26951;-60
2021/03/23 10:00:47;;;;;;;18.40;10.98;;;13.70;57.50;;;;;;5123053;27;27530;-60
2021/03/23 10:03:36;;;;;;;16.58;10.93;;;13.60;56.90;;;;;;5110991;27;27436;-60
2021/03/23 10:06:26;;;;;;;16.95;11.07;;;13.50;56.90;;;;;;5122983;27;27398;-60
2021/03/23 10:09:11;;;;;;;18.75;11.68;;;13.40;57.20;;;;;;5126224;27;27419;-58
2021/03/23 10:11:56;;;;;;;18.60;11.20;;;13.30;57.30;;;;;;5126205;27;27437;-59
2021/03/23 10:14:41;;;;;;;18.20;10.73;;;13.30;57.40;;;;;;5126384;27;27456;-59
2021/03/23 10:17:27;;;;;;;17.60;10.75;;;13.20;57.40;;;;;;5125825;27;27577;-59
2021/03/23 10:20:13;;;;;;;20.83;10.20;;;13.20;57.50;;;;;;5126076;27;27399;-59
2021/03/23 10:22:57;;;;;;;14.80;10.80;;;13.10;57.60;;;;;;5125983;27;27458;-58
2021/03/23 10:25:43;;;;;;;19.02;10.88;;;13.00;57.70;;;;;;5126212;27;28017;-59
2021/03/23 10:28:36;;;;;;;17.88;10.18;;;12.90;57.70;;;;;;5107541;27;27392;-59
2021/03/23 10:31:35;;;;;;;15.90;9.77;;;12.80;57.90;;;;;;5125100;27;27427;-59
2021/03/23 10:34:24;;;;;;;16.85;11.00;;;12.60;58.00;;;;;;5126088;27;27406;-58
2021/03/23 10:37:20;;;;;;;16.90;10.30;;;12.60;58.20;;;;;;5107375;27;27426;-58
2021/03/23 10:40:06;;;;;;;17.52;10.52;;;12.50;58.30;;;;;;5125665;27;27514;-59
2021/03/23 10:42:52;;;;;;;20.05;11.43;;;12.50;58.30;;;;;;5125959;27;27477;-59
2021/03/23 10:45:43;;;;;;;16.23;10.20;;;12.40;58.30;;;;;;5122298;27;27399;-58
2021/03/23 10:48:32;;;;;;;15.75;9.65;;;12.40;58.50;;;;;;5125897;27;27320;-58
2021/03/23 10:51:21;;;;;;;16.13;10.18;;;12.40;58.50;;;;;;5125496;27;27490;-58
2021/03/23 10:54:11;;;;;;;17.45;10.40;;;12.40;58.50;;;;;;5125809;27;26954;-58
2021/03/23 10:57:22;;;;;;;16.23;10.63;;;12.30;58.60;;;;;;5125747;27;27429;-58
2021/03/23 11:00:29;;;;;;;15.82;9.82;;;12.30;58.50;;;;;;5111947;27;27396;-58
2021/03/23 11:03:14;;;;;;;14.18;9.45;;;12.30;58.80;;;;;;5125610;27;27426;-58
2021/03/23 11:06:00;;;;;;;18.45;10.25;;;12.20;58.60;;;;;;5125355;27;27519;-59
2021/03/23 11:08:45;;;;;;;17.75;10.27;;;12.20;58.70;;;;;;5125608;27;27409;-58
2021/03/23 11:11:33;;;;;;;19.85;11.52;;;12.20;58.50;;;;;;5124778;27;27599;-59
2021/03/23 11:14:18;;;;;;;19.15;11.73;;;12.20;58.40;;;;;;5121864;27;27454;-58
2021/03/23 11:17:04;;;;;;;21.08;11.18;;;12.20;58.60;;;;;;5125246;27;27528;-58
2021/03/23 11:19:51;;;;;;;17.13;10.32;;;12.20;58.50;;;;;;5125123;27;27347;-58
2021/03/23 11:22:36;;;;;;;17.98;10.40;;;12.20;58.70;;;;;;5110381;27;27329;-58
2021/03/23 11:25:22;;;;;;;18.88;9.98;;;12.20;58.50;;;;;;5109841;27;27483;-58
2021/03/23 11:28:12;;;;;;;17.85;9.65;;;12.30;58.50;;;;;;5124973;27;27379;-58
2021/03/23 11:30:58;;;;;;;18.23;11.07;;;12.30;58.40;;;;;;5089027;28;27447;-58
2021/03/23 11:33:44;;;;;;;18.25;10.00;;;12.30;58.40;;;;;;5104629;28;27415;-58
2021/03/23 11:36:29;;;;;;;17.48;10.27;;;12.40;58.30;;;;;;5104658;28;27544;-58
2021/03/23 11:39:14;;;;;;;13.70;9.43;;;12.40;58.20;;;;;;5103763;28;27330;-58
2021/03/23 11:42:12;;;;;;;16.40;10.30;;;12.50;58.30;;;;;;5101194;28;27378;-59
2021/03/23 11:45:02;;;;;;;17.08;10.20;;;12.60;58.20;;;;;;5103351;28;27346;-59
2021/03/23 11:47:54;;;;;;;16.67;9.85;;;12.60;58.00;;;;;;5104414;28;27543;-58
2021/03/23 11:50:41;;;;;;;15.15;9.18;;;12.70;58.00;;;;;;5103960;28;27525;-58
2021/03/23 11:53:26;;;;;;;13.75;8.55;;;12.70;57.90;;;;;;5104053;28;27415;-59
2021/03/23 11:56:11;;;;;;;14.75;9.05;;;12.70;57.90;;;;;;5104005;28;27502;-59
2021/03/23 11:58:56;;;;;;;15.70;8.95;;;12.70;57.90;;;;;;5104309;28;27587;-58
2021/03/23 12:01:40;;;;;;;15.18;8.85;;;12.70;57.90;;;;;;5103342;28;27428;-58
2021/03/23 12:04:25;;;;;;;14.20;8.68;;;12.70;57.70;;;;;;5104260;28;27489;-58
2021/03/23 12:07:35;;;;;;;12.35;7.97;;;12.80;57.60;;;;;;5103861;28;27597;-58
2021/03/23 12:10:36;;;;;;;11.30;8.32;;;12.90;57.50;;;;;;5100723;28;27397;-58
2021/03/23 12:13:29;;;;;;;13.80;8.68;;;13.00;57.90;;;;;;5103973;28;27415;-59
2021/03/23 12:16:46;;;;;;;11.90;7.95;;;13.10;57.10;;;;;;5103640;27;27389;-58
2021/03/23 12:19:34;;;;;;;14.70;8.25;;;13.20;57.30;;;;;;5107389;28;27465;-59
2021/03/23 12:22:19;;;;;;;12.25;7.63;;;13.20;57.00;;;;;;5107217;28;27336;-58
2021/03/23 12:25:08;;;;;;;14.50;8.48;;;13.30;56.90;;;;;;5103924;28;27359;-58
2021/03/23 12:27:53;;;;;;;15.00;7.60;;;13.30;56.80;;;;;;5107441;28;27319;-58
2021/03/23 12:30:37;;;;;;;11.90;7.70;;;13.40;56.50;;;;;;5116810;27;27648;-58
2021/03/23 12:33:22;;;;;;;12.48;7.90;;;13.40;56.40;;;;;;5127391;27;27617;-59
2021/03/23 12:36:07;;;;;;;8.93;6.63;;;13.50;56.30;;;;;;5128031;27;27445;-58
2021/03/23 12:38:52;;;;;;;14.65;8.07;;;13.50;56.30;;;;;;5109481;27;27398;-58
2021/03/23 12:41:38;;;;;;;15.73;8.82;;;13.50;56.40;;;;;;5127889;27;27360;-58
2021/03/23 12:44:23;;;;;;;10.57;7.70;;;13.50;56.10;;;;;;5127529;27;27347;-58
2021/03/23 12:47:09;;;;;;;13.85;7.18;;;13.60;56.30;;;;;;5112265;27;27508;-59
2021/03/23 12:49:54;;;;;;;12.55;7.97;;;13.60;56.10;;;;;;5112136;27;27442;-59
2021/03/23 12:52:38;;;;;;;10.27;7.53;;;13.60;56.30;;;;;;5112212;27;27345;-59
2021/03/23 12:55:27;;;;;;;9.35;6.85;;;13.60;56.30;;;;;;5127365;27;27406;-59
2021/03/23 12:58:14;;;;;;;9.63;6.22;;;13.60;56.30;;;;;;5112862;27;27596;-59
2021/03/23 13:00:59;;;;;;;10.40;6.45;;;13.60;56.10;;;;;;5127171;27;28068;-59
2021/03/23 13:03:44;;;;;;;10.73;6.93;;;13.50;56.20;;;;;;5127190;27;27340;-59
2021/03/23 13:06:29;;;;;;;10.35;6.78;;;13.40;56.50;;;;;;5124173;27;27437;-58
2021/03/23 13:09:13;;;;;;;11.27;6.65;;;13.40;56.40;;;;;;5127207;27;27487;-59
2021/03/23 13:11:58;;;;;;;11.07;5.97;;;13.40;56.50;;;;;;5127038;27;27466;-59
2021/03/23 13:14:44;;;;;;;11.38;6.47;;;13.30;56.60;;;;;;5126944;27;27943;-59
2021/03/23 13:17:29;;;;;;;9.55;6.57;;;13.20;56.60;;;;;;5123658;27;27363;-59
2021/03/23 13:20:13;;;;;;;12.93;8.20;;;13.20;56.60;;;;;;5126737;27;27434;-59
2021/03/23 13:23:00;;;;;;;11.38;6.22;;;13.20;56.70;;;;;;5127010;27;27459;-59
2021/03/23 13:25:50;;;;;;;11.02;6.18;;;13.20;56.70;;;;;;5111681;27;27403;-59
2021/03/23 13:28:35;;;;;;;8.65;5.97;;;13.20;56.60;;;;;;5123681;27;27368;-59
2021/03/23 13:31:24;;;;;;;10.80;6.28;;;13.20;56.60;;;;;;5126262;27;27451;-59
2021/03/23 13:34:21;;;;;;;12.48;6.28;;;13.20;56.60;;;;;;5126695;27;26949;-59
2021/03/23 13:37:07;;;;;;;9.70;5.68;;;13.20;56.50;;;;;;5094219;27;27382;-59
2021/03/23 13:39:56;;;;;;;10.60;5.65;;;13.20;56.60;;;;;;5093588;27;27398;-59
2021/03/23 13:42:41;;;;;;;8.38;5.80;;;13.30;56.50;;;;;;5126919;27;27434;-59
2021/03/23 13:45:36;;;;;;;8.35;5.97;;;13.20;56.50;;;;;;5126706;27;27457;-59
2021/03/23 13:48:24;;;;;;;9.23;6.15;;;13.20;56.50;;;;;;5126602;27;27840;-59
2021/03/23 13:51:10;;;;;;;8.85;5.40;;;13.20;56.50;;;;;;5126586;27;27352;-59
2021/03/23 13:53:55;;;;;;;9.18;5.97;;;13.30;56.40;;;;;;5096742;27;27373;-59
2021/03/23 13:56:40;;;;;;;9.85;5.65;;;13.30;56.00;;;;;;5108508;27;27388;-59
2021/03/23 13:59:25;;;;;;;7.72;5.65;;;13.30;56.20;;;;;;5102419;28;27309;-59
2021/03/23 14:02:14;;;;;;;9.52;6.15;;;13.30;55.70;;;;;;5087609;28;27396;-59
2021/03/23 14:05:01;;;;;;;8.43;5.28;;;13.30;55.60;;;;;;5102821;28;27410;-58
2021/03/23 14:07:46;;;;;;;7.68;5.53;;;13.30;55.70;;;;;;5105689;28;27420;-59
2021/03/23 14:10:31;;;;;;;9.68;6.18;;;13.30;55.70;;;;;;5076615;28;27546;-59
2021/03/23 14:13:16;;;;;;;8.57;5.85;;;13.40;55.80;;;;;;5105768;28;27462;-59
2021/03/23 14:16:02;;;;;;;8.32;5.60;;;13.30;55.80;;;;;;5105812;28;27492;-59
2021/03/23 14:18:46;;;;;;;9.02;5.55;;;13.50;55.60;;;;;;5105741;28;27464;-60
2021/03/23 14:21:31;;;;;;;8.05;5.30;;;13.60;55.40;;;;;;5101809;28;27442;-58
2021/03/23 14:24:16;;;;;;;10.50;5.55;;;13.80;55.10;;;;;;5090269;28;27435;-59
2021/03/23 14:27:01;;;;;;;8.00;5.60;;;14.00;55.00;;;;;;5090427;28;27462;-59
2021/03/23 14:29:45;;;;;;;11.18;6.28;;;14.20;54.40;;;;;;5105025;28;27628;-59
2021/03/23 14:32:30;;;;;;;12.50;6.18;;;14.30;54.10;;;;;;5105604;28;27942;-59
2021/03/23 14:35:15;;;;;;;7.22;5.70;;;14.40;53.60;;;;;;5105485;28;27505;-59
2021/03/23 14:38:01;;;;;;;8.68;5.00;;;14.40;53.60;;;;;;5105278;28;27478;-59
2021/03/23 14:40:45;;;;;;;8.07;5.03;;;14.50;53.60;;;;;;5089158;28;27505;-59
2021/03/23 14:43:30;;;;;;;6.15;4.50;;;14.60;53.80;;;;;;5105388;28;27887;-59
2021/03/23 14:46:26;;;;;;;10.65;5.82;;;14.60;53.80;;;;;;5105385;28;27466;-59
2021/03/23 14:49:12;;;;;;;7.45;4.90;;;14.60;53.80;;;;;;5090568;28;27427;-59
2021/03/23 14:51:56;;;;;;;10.57;5.47;;;14.60;53.90;;;;;;5104965;28;27460;-59
2021/03/23 14:54:41;;;;;;;9.50;5.53;;;14.60;53.90;;;;;;5075648;28;27452;-59
2021/03/23 14:57:28;;;;;;;7.35;4.93;;;14.60;53.60;;;;;;5089931;28;27471;-59
2021/03/23 15:00:40;;;;;;;7.72;5.20;;;14.60;53.60;;;;;;5104755;28;27465;-59
2021/03/23 15:03:24;;;;;;;7.13;4.95;;;14.70;53.90;;;;;;5075878;28;27501;-59
2021/03/23 15:06:09;;;;;;;7.65;5.03;;;14.70;53.70;;;;;;5104928;28;27995;-59
2021/03/23 15:09:19;;;;;;;6.75;5.05;;;14.70;53.80;;;;;;5072471;28;27465;-59
2021/03/23 15:12:04;;;;;;;6.88;4.75;;;14.70;53.90;;;;;;5104624;28;27438;-59
2021/03/23 15:14:49;;;;;;;7.00;4.63;;;14.70;54.00;;;;;;5104358;28;27396;-59
2021/03/23 15:17:34;;;;;;;7.82;4.75;;;14.60;54.00;;;;;;5104729;28;27395;-59
2021/03/23 15:20:20;;;;;;;6.57;4.53;;;14.60;53.90;;;;;;5104448;28;27407;-59
2021/03/23 15:23:28;;;;;;;10.10;5.85;;;14.50;54.10;;;;;;5104469;28;27396;-59
2021/03/23 15:26:20;;;;;;;7.53;4.88;;;14.50;54.20;;;;;;5104531;28;27359;-59
2021/03/23 15:29:16;;;;;;;8.30;4.70;;;14.40;54.20;;;;;;5104327;28;27308;-59
2021/03/23 15:32:04;;;;;;;8.43;4.65;;;14.40;54.70;;;;;;5090119;28;27391;-59
2021/03/23 15:34:48;;;;;;;6.85;4.63;;;14.40;54.00;;;;;;5104417;28;27329;-59
2021/03/23 15:37:33;;;;;;;7.95;4.75;;;14.30;54.00;;;;;;5104573;28;27337;-59
2021/03/23 15:40:18;;;;;;;8.07;4.63;;;14.30;54.20;;;;;;5104361;28;27962;-59
2021/03/23 15:43:02;;;;;;;7.53;5.35;;;14.20;54.40;;;;;;5103883;28;27403;-59
2021/03/23 15:45:47;;;;;;;8.85;5.00;;;14.10;54.60;;;;;;5086054;28;27337;-59
2021/03/23 15:48:31;;;;;;;7.57;4.88;;;14.00;54.80;;;;;;5104196;28;27378;-59
2021/03/23 15:51:27;;;;;;;7.43;4.93;;;14.00;55.20;;;;;;5089453;28;27373;-59
2021/03/23 15:54:14;;;;;;;5.47;3.90;;;14.00;55.20;;;;;;5089351;28;27448;-59
2021/03/23 15:56:58;;;;;;;8.10;4.72;;;14.00;55.30;;;;;;5107767;28;27415;-59
2021/03/23 15:59:44;;;;;;;7.28;4.70;;;14.00;55.20;;;;;;5104584;28;27316;-59
2021/03/23 16:02:29;;;;;;;9.32;4.68;;;14.00;54.90;;;;;;5107825;28;27641;-59
2021/03/23 16:05:15;;;;;;;7.95;4.82;;;14.00;54.90;;;;;;5107819;28;27431;-59
2021/03/23 16:08:21;;;;;;;6.75;4.70;;;14.00;55.00;;;;;;5104459;28;27463;-59
2021/03/23 16:11:08;;;;;;;6.38;4.50;;;13.90;55.70;;;;;;5104622;28;27550;-59
2021/03/23 16:13:52;;;;;;;9.63;4.85;;;13.90;55.00;;;;;;5092624;28;27503;-59
2021/03/23 16:16:37;;;;;;;10.00;4.85;;;13.90;55.20;;;;;;5107606;28;27615;-59
2021/03/23 16:19:23;;;;;;;10.48;4.55;;;13.80;55.10;;;;;;5107619;28;27428;-58
2021/03/23 16:22:12;;;;;;;8.20;5.28;;;13.80;55.00;;;;;;5107083;28;27486;-59
2021/03/23 16:24:56;;;;;;;9.93;4.75;;;13.70;55.00;;;;;;5107105;28;28098;-59
2021/03/23 16:27:41;;;;;;;6.60;4.88;;;13.60;55.00;;;;;;5092244;28;27409;-59
2021/03/23 16:30:27;;;;;;;5.50;4.28;;;13.50;55.20;;;;;;5106870;28;27340;-59
2021/03/23 16:33:12;;;;;;;6.43;4.68;;;13.40;55.40;;;;;;5107296;28;27378;-58
2021/03/23 16:35:56;;;;;;;8.55;4.72;;;13.20;55.50;;;;;;5106925;28;27376;-58
2021/03/23 16:38:41;;;;;;;7.15;4.60;;;13.00;55.40;;;;;;5107184;28;27337;-59
2021/03/23 16:41:26;;;;;;;7.00;4.82;;;12.80;55.70;;;;;;5107070;28;27337;-58
2021/03/23 16:44:28;;;;;;;6.85;4.68;;;12.70;56.10;;;;;;5092216;28;27404;-58
2021/03/23 16:47:15;;;;;;;8.07;4.57;;;12.50;56.40;;;;;;5093609;28;27869;-58
2021/03/23 16:50:01;;;;;;;9.15;4.15;;;12.30;56.70;;;;;;5107171;28;27358;-59
2021/03/23 16:52:46;;;;;;;10.70;4.80;;;12.10;56.90;;;;;;5091857;28;27462;-58
2021/03/23 16:55:32;;;;;;;14.48;6.30;;;11.90;57.10;;;;;;5091678;28;27412;-59
2021/03/23 16:58:17;;;;;;;8.25;4.70;;;11.80;57.50;;;;;;5106885;28;27857;-64
2021/03/23 17:01:02;;;;;;;11.25;4.32;;;11.60;57.60;;;;;;5106842;28;27467;-63
2021/03/23 17:03:47;;;;;;;13.40;4.90;;;11.40;57.90;;;;;;5105782;28;26895;-64
2021/03/23 17:06:32;;;;;;;10.10;4.90;;;11.20;58.20;;;;;;5106671;28;27331;-64
2021/03/23 17:09:16;;;;;;;9.07;4.45;;;11.00;58.70;;;;;;5091365;28;27348;-64
2021/03/23 17:12:01;;;;;;;12.52;4.90;;;10.90;58.90;;;;;;5106470;28;27325;-64
2021/03/23 17:14:45;;;;;;;7.57;4.72;;;10.70;59.30;;;;;;5103550;28;27356;-64
2021/03/23 17:17:29;;;;;;;11.68;4.95;;;10.60;59.50;;;;;;5107419;28;27369;-64
2021/03/23 17:20:20;;;;;;;8.63;4.55;;;10.40;59.80;;;;;;5107281;28;27438;-64
2021/03/23 17:23:06;;;;;;;8.65;4.63;;;10.30;59.90;;;;;;5106935;28;27478;-64
2021/03/23 17:25:52;;;;;;;5.88;3.85;;;10.10;60.20;;;;;;5092119;28;27504;-64
2021/03/23 17:28:37;;;;;;;7.85;4.28;;;9.90;60.40;;;;;;5076995;28;27464;-64
2021/03/23 17:31:21;;;;;;;7.63;4.30;;;9.80;60.70;;;;;;5105354;28;27476;-64
2021/03/23 17:34:06;;;;;;;6.28;4.72;;;9.70;60.90;;;;;;5106375;28;27404;-64
2021/03/23 17:37:13;;;;;;;10.27;4.40;;;9.50;61.30;;;;;;5106082;28;27481;-67
2021/03/23 17:39:59;;;;;;;7.57;5.18;;;9.40;61.70;;;;;;5087793;28;27415;-67
2021/03/23 17:42:43;;;;;;;8.98;4.22;;;9.20;61.90;;;;;;5087709;28;27866;-64
2021/03/23 17:45:30;;;;;;;8.85;4.47;;;9.10;62.20;;;;;;5106074;28;27443;-67
2021/03/23 17:48:15;;;;;;;7.45;4.68;;;9.00;62.50;;;;;;5091197;28;27388;-66
2021/03/23 17:51:00;;;;;;;7.45;4.35;;;8.80;62.60;;;;;;5087658;28;27396;-64
2021/03/23 17:53:45;;;;;;;6.55;4.03;;;8.70;62.80;;;;;;5106314;28;27411;-64
2021/03/23 17:56:29;;;;;;;7.85;4.57;;;8.60;62.90;;;;;;5106218;28;27337;-64
2021/03/23 17:59:14;;;;;;;8.75;4.40;;;8.40;63.10;;;;;;5105789;28;27481;-64
2021/03/23 18:01:58;;;;;;;6.47;3.60;;;8.30;63.30;;;;;;5106294;28;27454;-66
2021/03/23 18:04:43;;;;;;;13.25;5.07;;;8.20;63.60;;;;;;5102903;28;27946;-64
2021/03/23 18:07:28;;;;;;;6.95;4.20;;;8.00;63.80;;;;;;5105812;28;27392;-63
2021/03/23 18:10:13;;;;;;;10.00;4.95;;;7.90;64.10;;;;;;5105502;28;27419;-63
2021/03/23 18:12:58;;;;;;;8.73;4.70;;;7.80;64.40;;;;;;5105767;28;27466;-64
2021/03/23 18:15:42;;;;;;;6.82;4.57;;;7.70;64.50;;;;;;5104478;28;27896;-63
2021/03/23 18:18:27;;;;;;;8.10;4.65;;;7.50;64.70;;;;;;5090462;28;27490;-67
2021/03/23 18:21:13;;;;;;;7.55;4.55;;;7.50;64.90;;;;;;5105113;28;27550;-64
2021/03/23 18:23:57;;;;;;;6.32;3.97;;;7.30;65.00;;;;;;5105653;28;27439;-65
2021/03/23 18:26:42;;;;;;;7.68;4.50;;;7.20;65.20;;;;;;5104904;28;27868;-64
2021/03/23 18:29:27;;;;;;;9.00;5.32;;;7.10;65.50;;;;;;5105173;28;27498;-66
2021/03/23 18:32:12;;;;;;;6.30;4.30;;;7.00;65.70;;;;;;5105304;28;27416;-64
2021/03/23 18:34:57;;;;;;;6.82;4.40;;;6.90;65.80;;;;;;5105170;28;27462;-67
2021/03/23 18:37:41;;;;;;;8.07;4.40;;;6.80;66.70;;;;;;5105419;28;27443;-64
2021/03/23 18:40:27;;;;;;;6.47;4.43;;;6.70;66.10;;;;;;5086886;28;27458;-64
2021/03/23 18:43:12;;;;;;;8.57;4.57;;;6.60;66.30;;;;;;5105115;28;27420;-63
2021/03/23 18:45:56;;;;;;;8.30;4.60;;;6.50;66.40;;;;;;5105263;28;27441;-64
2021/03/23 18:48:41;;;;;;;8.60;5.22;;;6.50;66.60;;;;;;5090123;28;27447;-63
2021/03/23 18:51:26;;;;;;;5.78;3.88;;;6.40;66.70;;;;;;5104832;28;27474;-63
2021/03/23 18:54:11;;;;;;;7.47;4.88;;;6.30;66.80;;;;;;5105153;28;27462;-63
2021/03/23 18:56:55;;;;;;;7.13;4.85;;;6.20;66.90;;;;;;5105076;28;27470;-64
2021/03/23 18:59:40;;;;;;;6.40;4.45;;;6.20;67.10;;;;;;5104881;28;27385;-65
2021/03/23 19:02:25;;;;;;;9.65;4.70;;;6.10;67.10;;;;;;5089544;28;27518;-63
2021/03/23 19:05:10;;;;;;;9.02;4.38;;;6.00;67.10;;;;;;5104704;28;27423;-64
2021/03/23 19:07:54;;;;;;;10.13;5.55;;;5.90;67.30;;;;;;5104851;28;27426;-64
2021/03/23 19:10:39;;;;;;;8.38;5.35;;;5.90;67.40;;;;;;5086391;28;27355;-64
2021/03/23 19:13:28;;;;;;;7.90;5.32;;;5.80;67.40;;;;;;5104605;28;27361;-64
2021/03/23 19:16:12;;;;;;;7.60;5.53;;;5.70;67.60;;;;;;5104565;28;27466;-64
2021/03/23 19:18:57;;;;;;;12.30;5.38;;;5.70;67.60;;;;;;5104838;28;27447;-64
2021/03/23 19:21:42;;;;;;;7.75;5.53;;;5.60;67.80;;;;;;5100828;28;27525;-64
2021/03/23 19:24:26;;;;;;;7.85;4.90;;;5.50;67.80;;;;;;5071661;28;27519;-64
2021/03/23 19:27:11;;;;;;;10.07;6.00;;;5.50;68.00;;;;;;5089545;28;27490;-66
2021/03/23 19:29:56;;;;;;;10.00;5.35;;;5.40;68.00;;;;;;5103916;28;27458;-67
2021/03/23 19:32:41;;;;;;;7.00;5.05;;;5.40;68.10;;;;;;5105064;28;27580;-64
2021/03/23 19:35:27;;;;;;;9.27;5.15;;;5.30;68.10;;;;;;5086561;28;27502;-64
2021/03/23 19:38:12;;;;;;;8.93;5.47;;;5.20;68.00;;;;;;5089625;28;27491;-64
2021/03/23 19:40:56;;;;;;;11.10;6.05;;;5.20;68.20;;;;;;5104599;28;27426;-64
2021/03/23 19:43:41;;;;;;;11.00;6.18;;;5.10;68.30;;;;;;5089174;28;27552;-65
2021/03/23 19:46:26;;;;;;;14.95;6.18;;;5.10;68.30;;;;;;5086025;28;27432;-64
2021/03/23 19:49:11;;;;;;;10.75;6.82;;;5.00;68.30;;;;;;5103603;28;27466;-64
2021/03/23 19:51:56;;;;;;;9.35;6.40;;;5.00;68.40;;;;;;5104441;28;27466;-64
2021/03/23 19:54:40;;;;;;;10.82;6.10;;;4.90;68.40;;;;;;5104000;28;27438;-63
2021/03/23 19:57:26;;;;;;;10.00;6.47;;;4.80;68.50;;;;;;5088766;28;27448;-64
2021/03/23 20:00:11;;;;;;;12.43;6.78;;;4.80;68.60;;;;;;5104303;28;27485;-67
2021/03/23 20:02:56;;;;;;;11.80;6.30;;;4.80;68.80;;;;;;5104332;28;27412;-64
2021/03/23 20:05:42;;;;;;;10.90;6.50;;;4.70;68.80;;;;;;5104332;28;27408;-63
2021/03/23 20:08:26;;;;;;;11.82;6.78;;;4.70;68.80;;;;;;5088894;28;27498;-63
2021/03/23 20:11:11;;;;;;;13.23;6.53;;;4.60;68.90;;;;;;5104336;28;27431;-64
2021/03/23 20:13:55;;;;;;;12.68;7.53;;;4.60;69.00;;;;;;5104283;28;27329;-64
2021/03/23 20:16:40;;;;;;;14.52;8.52;;;4.50;69.10;;;;;;5103839;28;27446;-64
2021/03/23 20:19:24;;;;;;;14.90;8.00;;;4.50;69.20;;;;;;5085521;28;27429;-63
2021/03/23 20:22:08;;;;;;;13.77;8.35;;;4.50;69.20;;;;;;5088615;28;27336;-64
2021/03/23 20:24:53;;;;;;;15.77;8.40;;;4.40;69.20;;;;;;5103715;28;27387;-64
2021/03/23 20:27:37;;;;;;;19.40;8.57;;;4.40;69.30;;;;;;5103845;28;27984;-64
2021/03/23 20:30:23;;;;;;;17.70;8.52;;;4.30;69.20;;;;;;5088361;27;27411;-64
2021/03/23 20:33:09;;;;;;;17.73;8.82;;;4.30;69.30;;;;;;5103621;28;27391;-67
2021/03/23 20:35:55;;;;;;;18.55;9.90;;;4.30;69.30;;;;;;5074735;28;27349;-63
2021/03/23 20:38:39;;;;;;;16.55;9.13;;;4.20;69.40;;;;;;5090716;28;27874;-67
2021/03/23 20:41:29;;;;;;;17.77;9.13;;;4.20;69.40;;;;;;5091743;28;27352;-63
2021/03/23 20:44:14;;;;;;;14.63;8.63;;;4.10;69.40;;;;;;5106802;28;28105;-63
2021/03/23 20:46:58;;;;;;;13.23;7.68;;;4.10;69.50;;;;;;5103842;28;27396;-63
2021/03/23 20:49:43;;;;;;;14.02;7.78;;;4.00;69.40;;;;;;5107216;28;27477;-63
2021/03/23 20:52:27;;;;;;;12.75;7.07;;;4.00;69.50;;;;;;5107401;28;27422;-64
2021/03/23 20:55:12;;;;;;;11.40;7.90;;;4.00;69.60;;;;;;5107116;28;27457;-63
2021/03/23 20:57:57;;;;;;;13.43;7.20;;;3.90;69.60;;;;;;5107089;28;27474;-63
2021/03/23 21:00:41;;;;;;;14.20;8.00;;;3.90;69.80;;;;;;5107203;28;27967;-64
2021/03/23 21:03:26;;;;;;;18.40;8.82;;;3.80;69.70;;;;;;5107190;28;27423;-64
2021/03/23 21:06:12;;;;;;;16.02;8.15;;;3.80;69.80;;;;;;5106945;28;27427;-64
2021/03/23 21:08:57;;;;;;;12.98;7.88;;;3.80;69.80;;;;;;5077976;28;27516;-64
2021/03/23 21:11:41;;;;;;;15.40;7.90;;;3.70;69.80;;;;;;5103782;28;28056;-67
2021/03/23 21:14:26;;;;;;;13.65;8.75;;;3.70;69.90;;;;;;5103445;28;27483;-63
2021/03/23 21:17:11;;;;;;;11.73;7.55;;;3.60;69.90;;;;;;5106704;28;27456;-64
2021/03/23 21:19:55;;;;;;;15.48;9.02;;;3.60;70.00;;;;;;5106669;28;27535;-63
2021/03/23 21:22:40;;;;;;;16.30;8.93;;;3.60;69.90;;;;;;5106621;28;27478;-64
2021/03/23 21:25:30;;;;;;;18.33;8.38;;;3.60;70.10;;;;;;5088368;28;27558;-63
2021/03/23 21:28:15;;;;;;;14.10;7.85;;;3.50;70.00;;;;;;5103066;28;27392;-63
2021/03/23 21:31:05;;;;;;;16.40;8.20;;;3.50;70.20;;;;;;5105603;28;27438;-64
2021/03/23 21:33:50;;;;;;;16.85;8.63;;;3.50;70.10;;;;;;5091293;28;27497;-64
2021/03/23 21:36:34;;;;;;;13.38;7.43;;;3.40;70.20;;;;;;5106323;28;27418;-64
2021/03/23 21:39:19;;;;;;;14.63;8.10;;;3.40;70.30;;;;;;5105822;28;27411;-63
2021/03/23 21:42:05;;;;;;;14.27;8.15;;;3.40;70.30;;;;;;5059516;28;27538;-64
2021/03/23 21:44:49;;;;;;;13.55;7.78;;;3.40;70.50;;;;;;5106654;28;27849;-64
2021/03/23 21:47:34;;;;;;;16.45;8.00;;;3.30;70.40;;;;;;5106376;28;27316;-63
2021/03/23 21:50:25;;;;;;;14.05;8.15;;;3.30;70.40;;;;;;5106120;27;27364;-63
2021/03/23 21:53:19;;;;;;;16.17;8.40;;;3.30;70.50;;;;;;5106028;28;27398;-64
2021/03/23 21:56:08;;;;;;;12.98;8.38;;;3.20;70.50;;;;;;5106272;28;27412;-63
2021/03/23 21:58:53;;;;;;;15.15;7.22;;;3.20;70.50;;;;;;5062709;28;27473;-63
2021/03/23 22:01:46;;;;;;;14.20;8.57;;;3.20;71.30;;;;;;5105614;28;27403;-63